sensor_id;sensor_type;location;lat;lon;timestamp;P1;durP1;ratioP1;P2;durP2;ratioP2
80227;SDS011;69539;42.138;24.742;2024-01-27T00:01:24;5.97;;;2.50;;
80227;SDS011;69539;42.138;24.742;2024-01-27T00:03:50;4.57;;;2.33;;
80227;SDS011;69539;42.138;24.742;2024-01-27T00:06:16;6.30;;;2.30;;
80227;SDS011;69539;42.138;24.742;2024-01-27T00:08:41;3.72;;;2.03;;
80227;SDS011;69539;42.138;24.742;2024-01-27T00:11:07;5.25;;;2.70;;
80227;SDS011;69539;42.138;24.742;2024-01-27T00:13:33;5.03;;;2.58;;
80227;SDS011;69539;42.138;24.742;2024-01-27T00:15:58;4.15;;;2.42;;
80227;SDS011;69539;42.138;24.742;2024-01-27T00:18:24;4.20;;;2.30;;
80227;SDS011;69539;42.138;24.742;2024-01-27T00:20:49;6.38;;;2.30;;
80227;SDS011;69539;42.138;24.742;2024-01-27T00:23:15;4.53;;;2.20;;
80227;SDS011;69539;42.138;24.742;2024-01-27T00:25:41;6.10;;;2.50;;
80227;SDS011;69539;42.138;24.742;2024-01-27T00:28:07;4.90;;;2.58;;
80227;SDS011;69539;42.138;24.742;2024-01-27T00:30:33;6.80;;;2.70;;
80227;SDS011;69539;42.138;24.742;2024-01-27T00:32:58;5.03;;;2.40;;
80227;SDS011;69539;42.138;24.742;2024-01-27T00:35:24;5.75;;;2.97;;
80227;SDS011;69539;42.138;24.742;2024-01-27T00:37:49;4.85;;;2.60;;
80227;SDS011;69539;42.138;24.742;2024-01-27T00:40:15;4.22;;;2.13;;
80227;SDS011;69539;42.138;24.742;2024-01-27T00:42:41;4.30;;;2.53;;
80227;SDS011;69539;42.138;24.742;2024-01-27T00:45:07;3.97;;;2.30;;
80227;SDS011;69539;42.138;24.742;2024-01-27T00:47:32;4.88;;;2.28;;
80227;SDS011;69539;42.138;24.742;2024-01-27T00:49:58;5.60;;;2.55;;
80227;SDS011;69539;42.138;24.742;2024-01-27T00:52:24;5.15;;;2.50;;
80227;SDS011;69539;42.138;24.742;2024-01-27T00:54:49;4.00;;;2.60;;
80227;SDS011;69539;42.138;24.742;2024-01-27T00:57:15;3.90;;;2.47;;
80227;SDS011;69539;42.138;24.742;2024-01-27T00:59:41;6.53;;;2.90;;
80227;SDS011;69539;42.138;24.742;2024-01-27T01:02:06;4.43;;;2.58;;
80227;SDS011;69539;42.138;24.742;2024-01-27T01:04:32;4.93;;;2.90;;
80227;SDS011;69539;42.138;24.742;2024-01-27T01:06:58;3.88;;;2.53;;
80227;SDS011;69539;42.138;24.742;2024-01-27T01:09:24;4.25;;;2.80;;
80227;SDS011;69539;42.138;24.742;2024-01-27T01:11:50;8.15;;;2.97;;
80227;SDS011;69539;42.138;24.742;2024-01-27T01:14:16;5.20;;;3.10;;
80227;SDS011;69539;42.138;24.742;2024-01-27T01:16:41;5.70;;;2.95;;
80227;SDS011;69539;42.138;24.742;2024-01-27T01:19:07;4.65;;;3.17;;
80227;SDS011;69539;42.138;24.742;2024-01-27T01:21:33;4.57;;;2.80;;
80227;SDS011;69539;42.138;24.742;2024-01-27T01:23:59;6.57;;;3.38;;
80227;SDS011;69539;42.138;24.742;2024-01-27T01:26:25;4.30;;;3.22;;
80227;SDS011;69539;42.138;24.742;2024-01-27T01:28:51;5.93;;;3.60;;
80227;SDS011;69539;42.138;24.742;2024-01-27T01:31:17;5.07;;;3.45;;
80227;SDS011;69539;42.138;24.742;2024-01-27T01:33:43;6.75;;;3.50;;
80227;SDS011;69539;42.138;24.742;2024-01-27T01:36:09;5.20;;;3.40;;
80227;SDS011;69539;42.138;24.742;2024-01-27T01:38:35;5.53;;;3.75;;
80227;SDS011;69539;42.138;24.742;2024-01-27T01:41:01;6.85;;;3.55;;
80227;SDS011;69539;42.138;24.742;2024-01-27T01:43:27;6.82;;;3.40;;
80227;SDS011;69539;42.138;24.742;2024-01-27T01:45:53;6.00;;;3.45;;
80227;SDS011;69539;42.138;24.742;2024-01-27T01:48:19;6.15;;;3.70;;
80227;SDS011;69539;42.138;24.742;2024-01-27T01:50:45;4.45;;;3.10;;
80227;SDS011;69539;42.138;24.742;2024-01-27T01:53:12;6.00;;;3.17;;
80227;SDS011;69539;42.138;24.742;2024-01-27T01:55:38;5.43;;;2.67;;
80227;SDS011;69539;42.138;24.742;2024-01-27T01:58:04;4.97;;;2.92;;
80227;SDS011;69539;42.138;24.742;2024-01-27T02:00:30;4.10;;;2.53;;
80227;SDS011;69539;42.138;24.742;2024-01-27T02:02:56;6.35;;;2.78;;
80227;SDS011;69539;42.138;24.742;2024-01-27T02:05:22;2.72;;;2.15;;
80227;SDS011;69539;42.138;24.742;2024-01-27T02:07:48;6.07;;;2.60;;
80227;SDS011;69539;42.138;24.742;2024-01-27T02:10:16;5.35;;;2.40;;
80227;SDS011;69539;42.138;24.742;2024-01-27T02:15:12;3.28;;;2.65;;
80227;SDS011;69539;42.138;24.742;2024-01-27T02:17:38;4.78;;;2.65;;
80227;SDS011;69539;42.138;24.742;2024-01-27T02:20:08;5.25;;;2.70;;
80227;SDS011;69539;42.138;24.742;2024-01-27T02:22:34;5.45;;;2.78;;
80227;SDS011;69539;42.138;24.742;2024-01-27T02:25:00;4.85;;;2.90;;
80227;SDS011;69539;42.138;24.742;2024-01-27T02:27:26;5.50;;;3.05;;
80227;SDS011;69539;42.138;24.742;2024-01-27T02:29:52;4.78;;;2.80;;
80227;SDS011;69539;42.138;24.742;2024-01-27T02:32:18;5.80;;;2.80;;
80227;SDS011;69539;42.138;24.742;2024-01-27T02:34:43;5.10;;;2.90;;
80227;SDS011;69539;42.138;24.742;2024-01-27T02:37:09;4.07;;;2.90;;
80227;SDS011;69539;42.138;24.742;2024-01-27T02:39:35;5.05;;;3.00;;
80227;SDS011;69539;42.138;24.742;2024-01-27T02:42:01;4.88;;;3.30;;
80227;SDS011;69539;42.138;24.742;2024-01-27T02:44:27;6.00;;;3.60;;
80227;SDS011;69539;42.138;24.742;2024-01-27T02:46:53;5.63;;;3.40;;
80227;SDS011;69539;42.138;24.742;2024-01-27T02:49:18;4.28;;;3.33;;
80227;SDS011;69539;42.138;24.742;2024-01-27T02:51:44;6.38;;;3.38;;
80227;SDS011;69539;42.138;24.742;2024-01-27T02:54:10;4.78;;;2.90;;
80227;SDS011;69539;42.138;24.742;2024-01-27T02:56:35;4.40;;;2.72;;
80227;SDS011;69539;42.138;24.742;2024-01-27T02:59:01;4.85;;;2.40;;
80227;SDS011;69539;42.138;24.742;2024-01-27T03:01:27;3.95;;;2.45;;
80227;SDS011;69539;42.138;24.742;2024-01-27T03:03:53;4.78;;;2.67;;
80227;SDS011;69539;42.138;24.742;2024-01-27T03:06:18;5.68;;;2.75;;
80227;SDS011;69539;42.138;24.742;2024-01-27T03:08:44;4.30;;;2.45;;
80227;SDS011;69539;42.138;24.742;2024-01-27T03:11:09;4.18;;;3.00;;
80227;SDS011;69539;42.138;24.742;2024-01-27T03:13:35;5.13;;;2.83;;
80227;SDS011;69539;42.138;24.742;2024-01-27T03:16:01;4.72;;;3.00;;
80227;SDS011;69539;42.138;24.742;2024-01-27T03:18:27;5.22;;;2.92;;
80227;SDS011;69539;42.138;24.742;2024-01-27T03:20:53;5.28;;;2.95;;
80227;SDS011;69539;42.138;24.742;2024-01-27T03:23:18;5.97;;;3.17;;
80227;SDS011;69539;42.138;24.742;2024-01-27T03:25:44;5.50;;;3.10;;
80227;SDS011;69539;42.138;24.742;2024-01-27T03:28:10;6.97;;;3.20;;
80227;SDS011;69539;42.138;24.742;2024-01-27T03:30:36;6.57;;;3.15;;
80227;SDS011;69539;42.138;24.742;2024-01-27T03:33:01;5.72;;;2.88;;
80227;SDS011;69539;42.138;24.742;2024-01-27T03:35:27;5.03;;;2.88;;
80227;SDS011;69539;42.138;24.742;2024-01-27T03:37:53;5.10;;;2.83;;
80227;SDS011;69539;42.138;24.742;2024-01-27T03:40:18;4.40;;;2.42;;
80227;SDS011;69539;42.138;24.742;2024-01-27T03:42:44;3.97;;;2.53;;
80227;SDS011;69539;42.138;24.742;2024-01-27T03:45:10;3.53;;;2.30;;
80227;SDS011;69539;42.138;24.742;2024-01-27T03:47:36;3.58;;;2.30;;
80227;SDS011;69539;42.138;24.742;2024-01-27T03:50:01;6.05;;;2.58;;
80227;SDS011;69539;42.138;24.742;2024-01-27T03:52:27;4.40;;;2.60;;
80227;SDS011;69539;42.138;24.742;2024-01-27T03:54:52;4.28;;;2.30;;
80227;SDS011;69539;42.138;24.742;2024-01-27T03:57:18;4.82;;;2.28;;
80227;SDS011;69539;42.138;24.742;2024-01-27T03:59:44;3.70;;;2.33;;
80227;SDS011;69539;42.138;24.742;2024-01-27T04:02:10;4.10;;;2.42;;
80227;SDS011;69539;42.138;24.742;2024-01-27T04:04:35;3.13;;;1.80;;
80227;SDS011;69539;42.138;24.742;2024-01-27T04:07:01;4.88;;;2.33;;
80227;SDS011;69539;42.138;24.742;2024-01-27T04:09:26;4.38;;;2.00;;
80227;SDS011;69539;42.138;24.742;2024-01-27T04:11:52;3.55;;;2.17;;
80227;SDS011;69539;42.138;24.742;2024-01-27T04:14:18;3.58;;;2.03;;
80227;SDS011;69539;42.138;24.742;2024-01-27T04:16:44;3.60;;;2.13;;
80227;SDS011;69539;42.138;24.742;2024-01-27T04:19:09;7.30;;;2.20;;
80227;SDS011;69539;42.138;24.742;2024-01-27T04:21:35;2.53;;;2.05;;
80227;SDS011;69539;42.138;24.742;2024-01-27T04:24:01;4.88;;;2.33;;
80227;SDS011;69539;42.138;24.742;2024-01-27T04:26:27;3.28;;;2.25;;
80227;SDS011;69539;42.138;24.742;2024-01-27T04:28:53;3.22;;;2.38;;
80227;SDS011;69539;42.138;24.742;2024-01-27T04:31:18;4.43;;;2.08;;
80227;SDS011;69539;42.138;24.742;2024-01-27T04:33:44;4.03;;;2.00;;
80227;SDS011;69539;42.138;24.742;2024-01-27T04:36:10;3.05;;;2.10;;
80227;SDS011;69539;42.138;24.742;2024-01-27T04:38:35;3.30;;;2.00;;
80227;SDS011;69539;42.138;24.742;2024-01-27T04:41:01;3.53;;;2.20;;
80227;SDS011;69539;42.138;24.742;2024-01-27T04:43:28;5.90;;;2.28;;
80227;SDS011;69539;42.138;24.742;2024-01-27T04:45:53;3.13;;;2.08;;
80227;SDS011;69539;42.138;24.742;2024-01-27T04:48:19;3.78;;;2.17;;
80227;SDS011;69539;42.138;24.742;2024-01-27T04:50:45;4.22;;;2.17;;
80227;SDS011;69539;42.138;24.742;2024-01-27T04:53:11;5.20;;;2.30;;
80227;SDS011;69539;42.138;24.742;2024-01-27T04:55:37;4.20;;;2.05;;
80227;SDS011;69539;42.138;24.742;2024-01-27T04:58:03;3.97;;;2.17;;
80227;SDS011;69539;42.138;24.742;2024-01-27T05:00:29;6.07;;;2.20;;
80227;SDS011;69539;42.138;24.742;2024-01-27T05:02:55;3.03;;;2.08;;
80227;SDS011;69539;42.138;24.742;2024-01-27T05:05:22;3.78;;;2.20;;
80227;SDS011;69539;42.138;24.742;2024-01-27T05:07:48;4.38;;;2.05;;
80227;SDS011;69539;42.138;24.742;2024-01-27T05:10:17;5.38;;;2.30;;
80227;SDS011;69539;42.138;24.742;2024-01-27T05:12:43;4.05;;;2.17;;
80227;SDS011;69539;42.138;24.742;2024-01-27T05:15:09;4.00;;;2.35;;
80227;SDS011;69539;42.138;24.742;2024-01-27T05:17:36;14.02;;;8.00;;
80227;SDS011;69539;42.138;24.742;2024-01-27T05:20:01;398.63;;;245.40;;
80227;SDS011;69539;42.138;24.742;2024-01-27T05:22:29;568.78;;;337.38;;
80227;SDS011;69539;42.138;24.742;2024-01-27T05:24:55;670.13;;;386.90;;
80227;SDS011;69539;42.138;24.742;2024-01-27T05:27:22;798.25;;;545.65;;
80227;SDS011;69539;42.138;24.742;2024-01-27T05:29:48;1088.85;;;726.72;;
80227;SDS011;69539;42.138;24.742;2024-01-27T05:32:14;997.65;;;680.90;;
80227;SDS011;69539;42.138;24.742;2024-01-27T05:34:40;852.75;;;598.72;;
80227;SDS011;69539;42.138;24.742;2024-01-27T05:37:06;737.90;;;516.53;;
80227;SDS011;69539;42.138;24.742;2024-01-27T05:39:31;690.97;;;482.75;;
80227;SDS011;69539;42.138;24.742;2024-01-27T05:41:58;598.65;;;397.13;;
80227;SDS011;69539;42.138;24.742;2024-01-27T05:44:24;499.27;;;312.48;;
80227;SDS011;69539;42.138;24.742;2024-01-27T05:46:50;439.58;;;265.70;;
80227;SDS011;69539;42.138;24.742;2024-01-27T05:49:15;403.95;;;247.35;;
80227;SDS011;69539;42.138;24.742;2024-01-27T05:51:41;329.00;;;190.40;;
80227;SDS011;69539;42.138;24.742;2024-01-27T05:54:08;469.20;;;328.80;;
80227;SDS011;69539;42.138;24.742;2024-01-27T05:56:35;1085.57;;;766.08;;
80227;SDS011;69539;42.138;24.742;2024-01-27T05:59:01;1001.38;;;715.55;;
80227;SDS011;69539;42.138;24.742;2024-01-27T06:01:28;785.50;;;582.10;;
80227;SDS011;69539;42.138;24.742;2024-01-27T06:03:53;603.58;;;424.58;;
80227;SDS011;69539;42.138;24.742;2024-01-27T06:06:19;442.45;;;291.38;;
80227;SDS011;69539;42.138;24.742;2024-01-27T06:08:44;396.20;;;249.18;;
80227;SDS011;69539;42.138;24.742;2024-01-27T06:11:10;328.65;;;203.85;;
80227;SDS011;69539;42.138;24.742;2024-01-27T06:13:36;282.23;;;173.20;;
80227;SDS011;69539;42.138;24.742;2024-01-27T06:16:06;240.90;;;141.77;;
80227;SDS011;69539;42.138;24.742;2024-01-27T06:18:34;191.13;;;119.43;;
80227;SDS011;69539;42.138;24.742;2024-01-27T06:21:00;160.98;;;102.80;;
80227;SDS011;69539;42.138;24.742;2024-01-27T06:23:26;148.18;;;91.60;;
80227;SDS011;69539;42.138;24.742;2024-01-27T06:25:52;123.97;;;79.38;;
80227;SDS011;69539;42.138;24.742;2024-01-27T06:28:18;768.05;;;535.03;;
80227;SDS011;69539;42.138;24.742;2024-01-27T06:30:43;785.97;;;559.42;;
80227;SDS011;69539;42.138;24.742;2024-01-27T06:33:09;706.67;;;499.13;;
80227;SDS011;69539;42.138;24.742;2024-01-27T06:35:35;527.28;;;337.15;;
80227;SDS011;69539;42.138;24.742;2024-01-27T06:38:00;398.80;;;238.90;;
80227;SDS011;69539;42.138;24.742;2024-01-27T06:40:26;324.75;;;182.82;;
80227;SDS011;69539;42.138;24.742;2024-01-27T06:42:51;214.95;;;121.97;;
80227;SDS011;69539;42.138;24.742;2024-01-27T06:45:17;156.57;;;92.38;;
80227;SDS011;69539;42.138;24.742;2024-01-27T06:47:43;99.40;;;57.92;;
80227;SDS011;69539;42.138;24.742;2024-01-27T06:50:09;65.22;;;39.25;;
80227;SDS011;69539;42.138;24.742;2024-01-27T06:52:34;76.20;;;46.53;;
80227;SDS011;69539;42.138;24.742;2024-01-27T06:55:00;626.22;;;421.35;;
80227;SDS011;69539;42.138;24.742;2024-01-27T06:57:26;1032.07;;;692.67;;
80227;SDS011;69539;42.138;24.742;2024-01-27T06:59:51;568.47;;;345.67;;
80227;SDS011;69539;42.138;24.742;2024-01-27T07:02:27;363.98;;;193.50;;
80227;SDS011;69539;42.138;24.742;2024-01-27T07:04:53;210.88;;;117.53;;
80227;SDS011;69539;42.138;24.742;2024-01-27T07:07:26;132.75;;;77.10;;
80227;SDS011;69539;42.138;24.742;2024-01-27T07:09:52;110.55;;;63.22;;
80227;SDS011;69539;42.138;24.742;2024-01-27T07:12:20;86.63;;;49.67;;
80227;SDS011;69539;42.138;24.742;2024-01-27T07:14:45;66.30;;;39.83;;
80227;SDS011;69539;42.138;24.742;2024-01-27T07:17:11;578.35;;;374.15;;
80227;SDS011;69539;42.138;24.742;2024-01-27T07:19:37;690.00;;;503.38;;
80227;SDS011;69539;42.138;24.742;2024-01-27T07:22:02;964.85;;;690.33;;
80227;SDS011;69539;42.138;24.742;2024-01-27T07:24:31;807.95;;;595.08;;
80227;SDS011;69539;42.138;24.742;2024-01-27T07:26:57;616.22;;;431.45;;
80227;SDS011;69539;42.138;24.742;2024-01-27T07:29:24;508.95;;;323.83;;
80227;SDS011;69539;42.138;24.742;2024-01-27T07:31:50;405.05;;;245.73;;
80227;SDS011;69539;42.138;24.742;2024-01-27T07:34:15;376.08;;;227.48;;
80227;SDS011;69539;42.138;24.742;2024-01-27T07:36:41;244.90;;;140.77;;
80227;SDS011;69539;42.138;24.742;2024-01-27T07:39:07;177.60;;;104.72;;
80227;SDS011;69539;42.138;24.742;2024-01-27T07:41:33;152.18;;;93.13;;
80227;SDS011;69539;42.138;24.742;2024-01-27T07:44:13;115.43;;;73.05;;
80227;SDS011;69539;42.138;24.742;2024-01-27T07:46:39;104.38;;;64.32;;
80227;SDS011;69539;42.138;24.742;2024-01-27T07:49:06;68.55;;;44.40;;
80227;SDS011;69539;42.138;24.742;2024-01-27T07:51:32;62.45;;;39.78;;
80227;SDS011;69539;42.138;24.742;2024-01-27T07:53:58;35.10;;;22.95;;
80227;SDS011;69539;42.138;24.742;2024-01-27T07:56:24;25.83;;;17.20;;
80227;SDS011;69539;42.138;24.742;2024-01-27T07:58:50;223.35;;;132.40;;
80227;SDS011;69539;42.138;24.742;2024-01-27T08:01:16;257.60;;;145.68;;
80227;SDS011;69539;42.138;24.742;2024-01-27T08:03:42;823.22;;;602.92;;
80227;SDS011;69539;42.138;24.742;2024-01-27T08:06:17;752.97;;;558.97;;
80227;SDS011;69539;42.138;24.742;2024-01-27T08:08:52;548.28;;;371.80;;
80227;SDS011;69539;42.138;24.742;2024-01-27T08:11:17;448.15;;;283.58;;
80227;SDS011;69539;42.138;24.742;2024-01-27T08:13:43;362.23;;;225.48;;
80227;SDS011;69539;42.138;24.742;2024-01-27T08:16:09;274.33;;;169.35;;
80227;SDS011;69539;42.138;24.742;2024-01-27T08:18:37;183.23;;;109.72;;
80227;SDS011;69539;42.138;24.742;2024-01-27T08:21:04;969.03;;;682.53;;
80227;SDS011;69539;42.138;24.742;2024-01-27T08:23:30;733.42;;;522.55;;
80227;SDS011;69539;42.138;24.742;2024-01-27T08:25:55;590.30;;;396.08;;
80227;SDS011;69539;42.138;24.742;2024-01-27T08:28:21;512.05;;;325.98;;
80227;SDS011;69539;42.138;24.742;2024-01-27T08:30:47;430.42;;;263.33;;
80227;SDS011;69539;42.138;24.742;2024-01-27T08:33:13;355.17;;;209.88;;
80227;SDS011;69539;42.138;24.742;2024-01-27T08:35:39;281.13;;;161.70;;
80227;SDS011;69539;42.138;24.742;2024-01-27T08:38:05;245.20;;;136.32;;
80227;SDS011;69539;42.138;24.742;2024-01-27T08:40:32;172.70;;;101.30;;
80227;SDS011;69539;42.138;24.742;2024-01-27T08:42:57;136.30;;;82.28;;
80227;SDS011;69539;42.138;24.742;2024-01-27T08:45:23;510.35;;;342.67;;
80227;SDS011;69539;42.138;24.742;2024-01-27T08:47:50;355.83;;;222.48;;
80227;SDS011;69539;42.138;24.742;2024-01-27T08:50:16;301.20;;;183.38;;
80227;SDS011;69539;42.138;24.742;2024-01-27T08:52:42;222.48;;;134.35;;
80227;SDS011;69539;42.138;24.742;2024-01-27T08:55:08;168.40;;;106.65;;
80227;SDS011;69539;42.138;24.742;2024-01-27T08:57:33;140.18;;;88.65;;
80227;SDS011;69539;42.138;24.742;2024-01-27T08:59:59;102.07;;;66.03;;
80227;SDS011;69539;42.138;24.742;2024-01-27T09:02:25;72.00;;;47.95;;
80227;SDS011;69539;42.138;24.742;2024-01-27T09:04:50;47.92;;;33.13;;
80227;SDS011;69539;42.138;24.742;2024-01-27T09:07:16;32.40;;;22.60;;
80227;SDS011;69539;42.138;24.742;2024-01-27T09:09:42;21.40;;;14.15;;
80227;SDS011;69539;42.138;24.742;2024-01-27T09:12:08;13.45;;;8.98;;
80227;SDS011;69539;42.138;24.742;2024-01-27T09:14:33;11.27;;;6.82;;
80227;SDS011;69539;42.138;24.742;2024-01-27T09:17:00;10.27;;;4.70;;
80227;SDS011;69539;42.138;24.742;2024-01-27T09:19:27;7.75;;;4.78;;
80227;SDS011;69539;42.138;24.742;2024-01-27T09:21:52;8.18;;;4.68;;
80227;SDS011;69539;42.138;24.742;2024-01-27T09:24:18;8.38;;;4.53;;
80227;SDS011;69539;42.138;24.742;2024-01-27T09:26:44;9.40;;;5.47;;
80227;SDS011;69539;42.138;24.742;2024-01-27T09:29:09;17.17;;;10.48;;
80227;SDS011;69539;42.138;24.742;2024-01-27T09:31:35;12.73;;;8.73;;
80227;SDS011;69539;42.138;24.742;2024-01-27T09:34:01;25.15;;;14.48;;
80227;SDS011;69539;42.138;24.742;2024-01-27T09:36:27;16.40;;;8.38;;
80227;SDS011;69539;42.138;24.742;2024-01-27T09:38:53;11.70;;;5.70;;
80227;SDS011;69539;42.138;24.742;2024-01-27T09:41:19;11.00;;;4.40;;
80227;SDS011;69539;42.138;24.742;2024-01-27T09:43:46;8.25;;;3.80;;
80227;SDS011;69539;42.138;24.742;2024-01-27T09:46:13;6.50;;;2.88;;
80227;SDS011;69539;42.138;24.742;2024-01-27T09:48:39;6.30;;;3.10;;
80227;SDS011;69539;42.138;24.742;2024-01-27T09:51:07;8.95;;;3.30;;
80227;SDS011;69539;42.138;24.742;2024-01-27T09:53:33;672.78;;;599.75;;
80227;SDS011;69539;42.138;24.742;2024-01-27T09:55:59;842.28;;;732.55;;
80227;SDS011;69539;42.138;24.742;2024-01-27T09:58:29;699.00;;;624.72;;
80227;SDS011;69539;42.138;24.742;2024-01-27T10:00:59;626.88;;;560.38;;
80227;SDS011;69539;42.138;24.742;2024-01-27T10:03:25;495.58;;;438.67;;
80227;SDS011;69539;42.138;24.742;2024-01-27T10:05:52;399.90;;;320.70;;
80227;SDS011;69539;42.138;24.742;2024-01-27T10:08:20;348.70;;;280.97;;
80227;SDS011;69539;42.138;24.742;2024-01-27T10:10:47;282.27;;;228.83;;
80227;SDS011;69539;42.138;24.742;2024-01-27T10:13:16;276.20;;;220.30;;
80227;SDS011;69539;42.138;24.742;2024-01-27T10:15:42;203.18;;;159.02;;
80227;SDS011;69539;42.138;24.742;2024-01-27T10:18:08;179.57;;;135.05;;
80227;SDS011;69539;42.138;24.742;2024-01-27T10:20:38;123.45;;;96.40;;
80227;SDS011;69539;42.138;24.742;2024-01-27T10:23:10;113.70;;;92.72;;
80227;SDS011;69539;42.138;24.742;2024-01-27T10:25:38;101.43;;;79.72;;
80227;SDS011;69539;42.138;24.742;2024-01-27T10:28:04;85.70;;;67.10;;
80227;SDS011;69539;42.138;24.742;2024-01-27T10:30:34;65.55;;;52.83;;
80227;SDS011;69539;42.138;24.742;2024-01-27T10:32:59;55.90;;;42.88;;
80227;SDS011;69539;42.138;24.742;2024-01-27T10:35:25;49.35;;;36.55;;
80227;SDS011;69539;42.138;24.742;2024-01-27T10:37:52;39.65;;;31.35;;
80227;SDS011;69539;42.138;24.742;2024-01-27T10:40:18;36.42;;;27.38;;
80227;SDS011;69539;42.138;24.742;2024-01-27T10:42:44;31.50;;;23.92;;
80227;SDS011;69539;42.138;24.742;2024-01-27T10:45:11;26.52;;;20.15;;
80227;SDS011;69539;42.138;24.742;2024-01-27T10:47:38;20.20;;;15.30;;
80227;SDS011;69539;42.138;24.742;2024-01-27T10:50:06;16.95;;;11.48;;
80227;SDS011;69539;42.138;24.742;2024-01-27T10:52:37;16.08;;;8.95;;
80227;SDS011;69539;42.138;24.742;2024-01-27T10:55:04;11.32;;;7.38;;
80227;SDS011;69539;42.138;24.742;2024-01-27T10:59:58;6.65;;;5.22;;
80227;SDS011;69539;42.138;24.742;2024-01-27T11:04:57;6.57;;;4.60;;
80227;SDS011;69539;42.138;24.742;2024-01-27T11:09:51;7.25;;;3.72;;
80227;SDS011;69539;42.138;24.742;2024-01-27T11:12:18;112.38;;;88.95;;
80227;SDS011;69539;42.138;24.742;2024-01-27T11:14:46;243.25;;;194.85;;
80227;SDS011;69539;42.138;24.742;2024-01-27T11:17:13;156.82;;;124.78;;
80227;SDS011;69539;42.138;24.742;2024-01-27T11:19:42;397.00;;;290.95;;
80227;SDS011;69539;42.138;24.742;2024-01-27T11:22:22;243.23;;;173.63;;
80227;SDS011;69539;42.138;24.742;2024-01-27T11:24:51;134.07;;;97.20;;
80227;SDS011;69539;42.138;24.742;2024-01-27T11:27:17;81.43;;;62.20;;
80227;SDS011;69539;42.138;24.742;2024-01-27T11:29:49;70.40;;;53.17;;
80227;SDS011;69539;42.138;24.742;2024-01-27T11:32:15;37.58;;;28.55;;
80227;SDS011;69539;42.138;24.742;2024-01-27T11:34:44;29.75;;;21.17;;
80227;SDS011;69539;42.138;24.742;2024-01-27T11:37:19;22.95;;;17.02;;
80227;SDS011;69539;42.138;24.742;2024-01-27T11:39:49;18.35;;;13.38;;
80227;SDS011;69539;42.138;24.742;2024-01-27T11:42:16;17.05;;;10.77;;
80227;SDS011;69539;42.138;24.742;2024-01-27T11:44:43;9.90;;;6.93;;
80227;SDS011;69539;42.138;24.742;2024-01-27T11:47:14;12.85;;;6.60;;
80227;SDS011;69539;42.138;24.742;2024-01-27T11:49:41;9.30;;;5.93;;
80227;SDS011;69539;42.138;24.742;2024-01-27T11:52:07;7.13;;;4.78;;
80227;SDS011;69539;42.138;24.742;2024-01-27T11:54:33;6.20;;;3.95;;
80227;SDS011;69539;42.138;24.742;2024-01-27T11:57:00;6.38;;;4.05;;
80227;SDS011;69539;42.138;24.742;2024-01-27T11:59:26;5.53;;;3.58;;
80227;SDS011;69539;42.138;24.742;2024-01-27T12:01:52;6.07;;;3.03;;
80227;SDS011;69539;42.138;24.742;2024-01-27T12:04:18;6.55;;;3.17;;
80227;SDS011;69539;42.138;24.742;2024-01-27T12:06:44;3.88;;;2.83;;
80227;SDS011;69539;42.138;24.742;2024-01-27T12:09:10;3.97;;;2.85;;
80227;SDS011;69539;42.138;24.742;2024-01-27T12:11:40;6.47;;;2.65;;
80227;SDS011;69539;42.138;24.742;2024-01-27T12:14:06;3.90;;;2.67;;
80227;SDS011;69539;42.138;24.742;2024-01-27T12:16:32;3.67;;;2.80;;
80227;SDS011;69539;42.138;24.742;2024-01-27T12:18:58;3.80;;;2.47;;
80227;SDS011;69539;42.138;24.742;2024-01-27T12:21:24;4.68;;;2.55;;
80227;SDS011;69539;42.138;24.742;2024-01-27T12:23:54;5.70;;;2.72;;
80227;SDS011;69539;42.138;24.742;2024-01-27T12:26:21;3.28;;;2.50;;
80227;SDS011;69539;42.138;24.742;2024-01-27T12:28:47;2.63;;;2.30;;
80227;SDS011;69539;42.138;24.742;2024-01-27T12:31:14;4.38;;;2.38;;
80227;SDS011;69539;42.138;24.742;2024-01-27T12:33:50;3.00;;;2.38;;
80227;SDS011;69539;42.138;24.742;2024-01-27T12:36:20;2.60;;;2.20;;
80227;SDS011;69539;42.138;24.742;2024-01-27T12:38:56;2.72;;;2.20;;
80227;SDS011;69539;42.138;24.742;2024-01-27T12:41:24;2.40;;;2.20;;
80227;SDS011;69539;42.138;24.742;2024-01-27T12:43:50;2.50;;;2.30;;
80227;SDS011;69539;42.138;24.742;2024-01-27T12:46:15;2.35;;;2.15;;
80227;SDS011;69539;42.138;24.742;2024-01-27T12:48:41;3.58;;;2.30;;
80227;SDS011;69539;42.138;24.742;2024-01-27T12:51:08;4.13;;;2.08;;
80227;SDS011;69539;42.138;24.742;2024-01-27T12:53:34;2.80;;;2.13;;
80227;SDS011;69539;42.138;24.742;2024-01-27T12:55:59;2.60;;;2.40;;
80227;SDS011;69539;42.138;24.742;2024-01-27T12:58:25;2.22;;;1.98;;
80227;SDS011;69539;42.138;24.742;2024-01-27T13:00:51;3.40;;;2.10;;
80227;SDS011;69539;42.138;24.742;2024-01-27T13:03:17;2.60;;;2.30;;
80227;SDS011;69539;42.138;24.742;2024-01-27T13:05:42;2.60;;;2.40;;
80227;SDS011;69539;42.138;24.742;2024-01-27T13:08:08;2.42;;;2.15;;
80227;SDS011;69539;42.138;24.742;2024-01-27T13:10:34;2.53;;;2.22;;
80227;SDS011;69539;42.138;24.742;2024-01-27T13:13:00;2.58;;;2.17;;
80227;SDS011;69539;42.138;24.742;2024-01-27T13:15:26;2.40;;;2.20;;
80227;SDS011;69539;42.138;24.742;2024-01-27T13:17:52;3.03;;;2.15;;
80227;SDS011;69539;42.138;24.742;2024-01-27T13:20:17;3.30;;;2.40;;
80227;SDS011;69539;42.138;24.742;2024-01-27T13:22:43;3.53;;;2.47;;
80227;SDS011;69539;42.138;24.742;2024-01-27T13:25:10;3.67;;;2.55;;
80227;SDS011;69539;42.138;24.742;2024-01-27T13:27:35;4.47;;;2.55;;
80227;SDS011;69539;42.138;24.742;2024-01-27T13:30:01;2.78;;;2.30;;
80227;SDS011;69539;42.138;24.742;2024-01-27T13:32:27;3.63;;;2.20;;
80227;SDS011;69539;42.138;24.742;2024-01-27T13:34:53;2.53;;;2.17;;
80227;SDS011;69539;42.138;24.742;2024-01-27T13:37:19;4.47;;;2.53;;
80227;SDS011;69539;42.138;24.742;2024-01-27T13:39:45;4.32;;;2.58;;
80227;SDS011;69539;42.138;24.742;2024-01-27T13:42:11;4.90;;;2.15;;
80227;SDS011;69539;42.138;24.742;2024-01-27T13:44:37;2.85;;;2.20;;
80227;SDS011;69539;42.138;24.742;2024-01-27T13:47:05;3.45;;;2.38;;
80227;SDS011;69539;42.138;24.742;2024-01-27T13:49:34;222.48;;;162.60;;
80227;SDS011;69539;42.138;24.742;2024-01-27T13:52:00;563.35;;;411.83;;
80227;SDS011;69539;42.138;24.742;2024-01-27T13:54:26;410.90;;;270.55;;
80227;SDS011;69539;42.138;24.742;2024-01-27T13:56:51;299.33;;;193.55;;
80227;SDS011;69539;42.138;24.742;2024-01-27T13:59:17;216.70;;;135.55;;
80227;SDS011;69539;42.138;24.742;2024-01-27T14:01:44;156.70;;;102.70;;
80227;SDS011;69539;42.138;24.742;2024-01-27T14:04:10;114.82;;;75.97;;
80227;SDS011;69539;42.138;24.742;2024-01-27T14:06:35;80.85;;;53.80;;
80227;SDS011;69539;42.138;24.742;2024-01-27T14:09:01;55.33;;;37.10;;
80227;SDS011;69539;42.138;24.742;2024-01-27T14:11:27;39.42;;;28.00;;
80227;SDS011;69539;42.138;24.742;2024-01-27T14:13:53;26.58;;;18.45;;
80227;SDS011;69539;42.138;24.742;2024-01-27T14:16:19;20.90;;;13.80;;
80227;SDS011;69539;42.138;24.742;2024-01-27T14:18:45;445.92;;;311.33;;
80227;SDS011;69539;42.138;24.742;2024-01-27T14:21:11;237.68;;;153.00;;